Latest Weather Observations for Shepparton

IDV60801

Issued at 6:05 pm EST Tuesday 23 September 2014 (issued every 30 minutes, with the page automatically refreshed every 10 minutes)

About weather observations | Map of weather stations | Latest weather observations for VIC | Other Formats
Station Details ID: 081125 Name: SHEPPARTON AIRPORT Lat: -36.43 Lon: 145.39 Height: 113.9 m
Data from the previous 72 hours. | See also: Recent months at Shepparton
Date/Time
EST
Temp
°C
App
Temp
°C
Dew
Point
Rel
Hum
%
Delta-T
°C
Wind Press
QNH
hPa
Press
MSL
hPa
Rain
since 9 am
mm
Dir
 
Spd
km/h
Gust
km/h
Spd
kts
Gust
kts
23/06:00pm 19.9 17.4 6.6 42 6.7 E 9 11 5 6 1022.5 1022.6 0.0
23/05:30pm 21.6 19.0 5.9 36 7.9 NE 9 17 5 9 1022.5 1022.6 0.0
23/05:00pm 22.3 19.2 5.7 34 8.3 ENE 11 15 6 8 1022.7 1022.8 0.0
23/04:30pm 22.3 19.1 6.9 37 7.9 NE 13 20 7 11 1022.4 1022.5 0.0
23/04:00pm 22.6 19.4 6.8 36 8.1 NE 13 19 7 10 1022.5 1022.6 0.0
23/03:30pm 23.1 20.6 6.4 34 8.6 NE 9 19 5 10 1023.0 1023.1 0.0
23/03:00pm 23.3 21.2 5.7 32 8.9 NE 6 11 3 6 1023.2 1023.3 0.0
23/02:30pm 23.3 20.3 6.1 33 8.8 WNW 11 17 6 9 1023.5 1023.6 0.0
23/02:00pm 23.0 21.0 6.3 34 8.5 E 6 13 3 7 1024.1 1024.2 0.0
23/01:30pm 23.7 21.5 9.3 40 7.8 NNE 11 19 6 10 1024.5 1024.6 0.0
23/01:00pm 23.2 21.2 8.5 39 7.8 NNE 9 17 5 9 1024.9 1025.0 0.0
23/12:30pm 22.7 20.5 9.5 43 7.2 NNE 11 17 6 9 1025.3 1025.4 0.0
23/12:00pm 21.9 19.8 8.4 42 7.1 NNE 9 19 5 10 1025.8 1025.9 0.0
23/11:30am 21.3 18.7 9.5 47 6.4 NE 13 19 7 10 1026.3 1026.4 0.0
23/11:00am 20.8 18.5 10.3 51 5.7 NE 13 17 7 9 1026.7 1026.8 0.0
23/10:30am 19.3 16.4 9.8 54 5.1 NNE 15 22 8 12 1027.1 1027.2 0.0
23/10:00am 18.5 15.0 8.7 53 5.1 NNE 17 22 9 12 1027.5 1027.6 0.0
23/09:30am 17.8 14.1 8.1 53 5.0 NNE 17 24 9 13 1027.8 1027.9 0.0
23/09:00am 16.6 12.6 8.1 57 4.3 NNE 19 26 10 14 1027.9 1028.0 0.0
23/08:30am 14.9 12.2 7.5 61 3.7 NE 11 15 6 8 1028.2 1028.3 0.0
23/08:00am 13.3 11.4 7.5 68 2.8 NE 7 13 4 7 1028.0 1028.1 0.0
23/07:30am 9.4 8.6 6.3 81 1.4 CALM 0 4 0 2 1027.9 1028.0 0.0
23/07:00am 7.6 6.7 6.2 91 0.6 CALM 0 0 0 0 1027.6 1027.7 0.0
23/06:30am 4.7 3.4 4.0 95 0.3 CALM 0 0 0 0 1027.7 1027.8 0.0
23/06:00am 4.6 3.3 3.9 95 0.3 CALM 0 0 0 0 1027.7 1027.8 0.0
23/05:30am 4.8 3.4 3.8 93 0.4 CALM 0 0 0 0 1027.5 1027.6 0.0
23/05:00am 5.6 4.0 4.6 93 0.4 E 2 7 1 4 1027.2 1027.3 0.0
23/04:30am 5.9 4.8 4.9 93 0.4 CALM 0 0 0 0 1027.1 1027.2 0.0
23/04:00am 5.9 4.7 4.7 92 0.5 CALM 0 0 0 0 1027.0 1027.1 0.0
23/03:30am 5.5 4.2 4.3 92 0.5 CALM 0 0 0 0 1026.8 1026.9 0.0
23/03:00am 5.8 4.7 4.9 94 0.4 CALM 0 0 0 0 1026.7 1026.8 0.0
23/02:30am 5.0 3.7 4.1 94 0.4 CALM 0 0 0 0 1026.9 1027.0 0.0
23/02:00am 5.4 4.2 4.4 93 0.4 CALM 0 0 0 0 1027.2 1027.3 0.0
23/01:30am 6.2 5.1 5.3 94 0.4 CALM 0 0 0 0 1027.6 1027.7 0.0
23/01:00am 6.7 5.7 5.7 93 0.4 CALM 0 0 0 0 1027.7 1027.8 0.0
23/12:30am 6.6 5.6 5.6 93 0.4 CALM 0 0 0 0 1028.0 1028.1 0.0
23/12:00am 6.3 5.1 4.8 90 0.7 SE 0 0 0 0 1028.0 1028.1 0.0
 
Date/Time
EST
Temp
°C
App
Temp
°C
Dew
Point
Rel
Hum
%
Delta-T
°C
Wind Press
QNH
hPa
Press
MSL
hPa
Rain
since 9 am
mm
Dir
 
Spd
km/h
Gust
km/h
Spd
kts
Gust
kts
22/11:30pm 7.1 6.1 5.7 91 0.6 CALM 0 0 0 0 1028.0 1028.1 0.0
22/11:00pm 7.4 6.5 5.9 90 0.7 CALM 0 0 0 0 1028.1 1028.2 0.0
22/10:30pm 7.4 5.2 5.2 86 1.0 SE 6 7 3 4 1028.1 1028.2 0.0
22/10:00pm 7.7 5.8 5.0 83 1.2 SE 4 7 2 4 1028.0 1028.1 0.0
22/09:30pm 8.7 6.6 5.6 81 1.4 SE 6 7 3 4 1027.9 1028.0 0.0
22/09:00pm 9.3 7.2 6.0 80 1.5 SE 6 7 3 4 1027.7 1027.8 0.0
22/08:30pm 9.8 7.7 5.6 75 1.9 SE 6 7 3 4 1027.6 1027.7 0.0
22/08:00pm 11.7 11.0 6.8 72 2.3 CALM 0 0 0 0 1027.6 1027.7 0.0
22/07:30pm 12.0 9.7 5.9 66 2.9 E 7 7 4 4 1027.4 1027.5 0.0
22/07:00pm 15.9 13.2 5.5 50 5.0 E 9 11 5 6 1027.1 1027.2 0.0
22/06:30pm 17.6 15.2 5.2 44 6.0 ENE 7 9 4 5 1026.8 1026.9 0.0
22/06:00pm 18.8 16.3 4.9 40 6.7 ENE 7 9 4 5 1026.7 1026.8 0.0
22/05:30pm 19.8 16.4 3.9 35 7.6 NE 11 15 6 8 1026.6 1026.7 0.0
22/05:00pm 20.3 17.4 4.4 35 7.7 NNE 9 15 5 8 1026.5 1026.6 0.0
22/04:30pm 20.7 17.0 2.5 30 8.5 NE 11 17 6 9 1026.4 1026.5 0.0
22/04:00pm 21.0 17.5 3.7 32 8.3 N 11 17 6 9 1026.3 1026.4 0.0
22/03:30pm 21.2 17.9 4.7 34 8.1 N 11 17 6 9 1026.5 1026.6 0.0
22/03:00pm 20.8 17.0 4.0 33 8.1 N 13 19 7 10 1026.8 1026.9 0.0
22/02:30pm 20.7 17.0 4.7 35 7.8 N 13 20 7 11 1027.2 1027.3 0.0
22/02:00pm 20.9 17.8 5.7 37 7.6 NNW 11 17 6 9 1027.4 1027.5 0.0
22/01:30pm 21.1 18.3 8.4 44 6.7 N 13 19 7 10 1027.6 1027.7 0.0
22/01:00pm 20.7 18.4 5.9 38 7.4 WNW 7 17 4 9 1028.0 1028.1 0.0
22/12:30pm 19.7 16.1 6.8 43 6.5 N 15 24 8 13 1028.5 1028.5 0.0
22/12:00pm 19.9 16.7 8.6 48 5.9 N 15 20 8 11 1029.0 1029.0 0.0
22/11:30am 18.6 14.6 8.3 51 5.3 N 19 24 10 13 1029.4 1029.5 0.0
22/11:00am 18.0 15.0 9.1 56 4.6 N 15 20 8 11 1029.8 1029.9 0.0
22/10:30am 16.8 13.7 9.0 60 4.1 NNE 15 20 8 11 1030.1 1030.2 0.0
22/10:00am 15.8 12.7 9.0 64 3.5 NNE 15 20 8 11 1030.2 1030.3 0.0
22/09:30am 14.5 11.3 8.5 67 3.0 NE 15 19 8 10 1030.5 1030.6 0.0
22/09:00am 13.9 11.8 8.1 68 2.9 NE 9 20 5 11 1030.5 1030.6 0.0
22/08:30am 11.6 10.4 7.9 78 1.8 ESE 4 9 2 5 1030.7 1030.8 0.0
22/08:00am 9.4 7.5 7.5 88 0.9 E 7 11 4 6 1030.4 1030.5 0.0
22/07:30am 6.8 6.0 6.7 99 0.0 CALM 0 0 0 0 1030.1 1030.2 0.0
22/07:00am 4.6 3.4 4.5 99 0.0 CALM 0 0 0 0 1029.8 1029.9 0.0
22/06:30am 2.6 1.0 2.5 99 0.0 CALM 0 0 0 0 1029.6 1029.7 0.0
22/06:00am 3.2 1.7 3.1 99 0.0 CALM 0 0 0 0 1029.2 1029.2 0.0
22/05:30am 3.2 1.7 3.1 99 0.0 CALM 0 2 0 1 1028.9 1028.9 0.0
22/05:00am 3.0 0.3 2.9 99 0.0 SSE 6 7 3 4 1028.7 1028.7 0.0
22/04:30am 2.5 -0.8 2.4 99 0.0 SSE 9 11 5 6 1028.5 1028.5 0.0
22/04:00am 4.1 1.6 4.0 99 0.0 SSE 6 7 3 4 1028.3 1028.4 0.0
22/03:30am 3.7 2.3 3.6 99 0.0 CALM 0 0 0 0 1028.0 1028.1 0.0
22/03:00am 4.2 2.9 3.9 98 0.1 CALM 0 0 0 0 1028.0 1028.1 0.0
22/02:30am 4.6 3.3 4.2 97 0.2 CALM 0 0 0 0 1028.1 1028.2 0.0
22/02:00am 4.4 3.0 3.8 96 0.2 CALM 0 0 0 0 1028.3 1028.4 0.0
22/01:30am 5.3 4.1 4.6 95 0.3 CALM 0 0 0 0 1028.6 1028.6 0.0
22/01:00am 6.3 5.3 5.4 94 0.4 CALM 0 0 0 0 1028.6 1028.6 0.0
22/12:30am 6.2 5.1 5.0 92 0.5 CALM 0 0 0 0 1028.7 1028.7 0.0
22/12:00am 6.8 5.7 5.3 90 0.7 CALM 0 0 0 0 1028.9 1028.9 0.0
 
Date/Time
EST
Temp
°C
App
Temp
°C
Dew
Point
Rel
Hum
%
Delta-T
°C
Wind Press
QNH
hPa
Press
MSL
hPa
Rain
since 9 am
mm
Dir
 
Spd
km/h
Gust
km/h
Spd
kts
Gust
kts
21/11:30pm 7.9 5.8 5.9 87 0.9 SSW 6 7 3 4 1028.8 1028.8 0.0
21/11:00pm 7.8 5.5 5.6 86 1.0 SSW 7 9 4 5 1028.9 1028.9 0.0
21/10:30pm 8.3 5.7 5.9 85 1.1 SSW 9 11 5 6 1028.7 1028.7 0.0
21/10:00pm 9.0 6.4 5.9 81 1.4 SSW 9 11 5 6 1028.5 1028.5 0.0
21/09:30pm 9.4 7.1 5.9 79 1.6 S 7 11 4 6 1028.5 1028.5 0.0
21/09:00pm 10.3 7.0 6.6 78 1.7 S 13 17 7 9 1028.3 1028.4 0.0
21/08:30pm 10.9 8.0 6.6 75 2.0 SSW 11 15 6 8 1028.5 1028.5 0.0
21/08:00pm 10.6 8.1 6.6 76 1.9 S 9 11 5 6 1028.3 1028.4 0.0
21/07:30pm 10.6 8.5 5.8 72 2.2 S 6 9 3 5 1028.1 1028.2 0.0
21/07:00pm 12.5 11.7 6.5 67 2.9 CALM 0 0 0 0 1028.0 1028.1 0.0
21/06:30pm 13.6 11.4 5.5 58 3.8 S 6 7 3 4 1027.8 1027.9 0.0
21/06:00pm 15.5 13.2 5.7 52 4.7 S 7 9 4 5 1027.6 1027.7 0.0
21/05:30pm 16.8 13.2 4.8 45 5.7 S 13 17 7 9 1027.5 1027.6 0.0
21/05:00pm 17.8 13.8 5.1 43 6.1 S 15 22 8 12 1027.5 1027.6 0.0
21/04:30pm 18.4 14.9 5.3 42 6.4 S 13 19 7 10 1027.5 1027.6 0.0
21/04:00pm 18.9 15.8 5.7 42 6.5 SW 11 19 6 10 1027.6 1027.7 0.0
21/03:30pm 18.5 15.2 6.4 45 6.0 SSE 13 19 7 10 1027.7 1027.8 0.0
21/03:00pm 18.5 16.4 6.0 44 6.1 SE 6 17 3 9 1027.8 1027.9 0.0
21/02:30pm 18.4 15.5 6.3 45 6.0 SE 11 20 6 11 1028.1 1028.2 0.0
21/02:00pm 18.3 16.3 6.2 45 6.0 S 6 11 3 6 1028.5 1028.5 0.0
21/01:30pm 17.9 14.9 5.8 45 5.9 SSW 11 19 6 10 1028.8 1028.8 0.0
21/01:00pm 18.3 16.0 5.5 43 6.2 WNW 7 13 4 7 1029.3 1029.4 0.0
21/12:30pm 17.2 14.7 6.7 50 5.2 S 9 17 5 9 1029.8 1029.9 0.0
21/12:00pm 16.9 14.7 6.1 49 5.3 E 7 19 4 10 1030.0 1030.1 0.0
21/11:30am 15.6 13.5 5.8 52 4.7 SE 6 15 3 8 1030.2 1030.3 0.0
21/11:00am 15.9 13.9 6.1 52 4.7 ESE 6 9 3 5 1030.5 1030.6 0.0
21/10:30am 15.4 14.7 6.9 57 4.2 CALM 0 7 0 4 1030.5 1030.6 0.0
21/10:00am 13.2 10.6 6.3 63 3.3 SSE 9 13 5 7 1030.8 1030.9 0.0
21/09:30am 12.7 10.1 6.3 65 3.1 SSE 9 13 5 7 1030.9 1031.0 0.0
21/09:00am 11.3 8.6 5.4 67 2.7 SSE 9 15 5 8 1030.8 1030.9 0.0
21/08:30am 10.2 7.0 5.2 71 2.3 S 11 13 6 7 1030.6 1030.7 0.0
21/08:00am 9.1 5.8 4.7 74 2.0 S 11 15 6 8 1030.3 1030.4 0.0
21/07:30am 8.2 5.7 4.8 79 1.5 SSE 7 9 4 5 1030.0 1030.1 0.0
21/07:00am 6.6 2.9 4.6 87 0.9 S 13 15 7 8 1029.7 1029.8 0.0
21/06:30am 4.8 2.0 3.1 89 0.7 S 7 9 4 5 1029.3 1029.4 0.0
21/06:00am 5.4 1.9 3.3 86 0.9 S 11 15 6 8 1029.1 1029.1 0.0
21/05:30am 6.3 1.3 3.8 84 1.1 S 19 24 10 13 1028.9 1028.9 0.0
21/05:00am 6.7 1.6 3.9 82 1.2 S 20 30 11 16 1028.3 1028.4 0.0
21/04:30am 6.8 2.3 4.1 83 1.2 S 17 24 9 13 1027.8 1027.9 0.0
21/04:00am 6.5 2.0 4.2 85 1.0 S 17 20 9 11 1027.4 1027.5 0.0
21/03:30am 6.4 2.7 4.2 86 0.9 S 13 17 7 9 1027.1 1027.2 0.0
21/03:00am 6.7 2.6 4.4 85 1.0 S 15 17 8 9 1027.1 1027.2 0.0
21/02:30am 6.6 2.9 4.6 87 0.9 S 13 20 7 11 1027.2 1027.3 0.0
21/02:00am 6.5 3.2 4.5 87 0.9 S 11 15 6 8 1027.4 1027.5 0.0
21/01:30am 7.0 3.4 4.8 86 1.0 S 13 17 7 9 1027.6 1027.7 0.0
21/01:00am 7.5 4.0 5.3 86 1.0 S 13 19 7 10 1027.7 1027.8 0.0
21/12:30am 7.9 4.1 5.7 86 1.0 S 15 17 8 9 1027.7 1027.8 0.0
21/12:00am 8.1 4.3 5.7 85 1.1 S 15 20 8 11 1027.7 1027.8 0.0
 
Date/Time
EST
Temp
°C
App
Temp
°C
Dew
Point
Rel
Hum
%
Delta-T
°C
Wind Press
QNH
hPa
Press
MSL
hPa
Rain
since 9 am
mm
Dir
 
Spd
km/h
Gust
km/h
Spd
kts
Gust
kts
20/11:30pm 8.7 4.2 6.2 84 1.2 S 19 22 10 12 1027.8 1027.9 0.0
20/11:00pm 9.2 4.8 6.5 83 1.3 S 19 24 10 13 1027.9 1028.0 0.0
20/10:30pm 9.6 5.0 6.5 81 1.5 S 20 32 11 17 1028.0 1028.1 0.0
20/10:00pm 9.8 4.8 6.5 80 1.5 S 22 30 12 16 1027.9 1028.0 0.0
20/09:30pm 10.1 5.6 6.8 80 1.6 S 20 28 11 15 1027.8 1027.9 0.0
20/09:00pm 10.3 5.8 6.8 79 1.6 S 20 28 11 15 1027.6 1027.7 0.0
20/08:30pm 10.7 6.2 6.8 77 1.9 S 20 26 11 14 1027.6 1027.7 0.0
20/08:00pm 10.9 6.6 6.8 76 1.9 S 19 28 10 15 1027.2 1027.3 0.0
20/07:30pm 11.4 7.0 6.5 72 2.3 S 19 24 10 13 1026.8 1026.9 0.0
20/07:00pm 11.9 7.4 6.0 67 2.8 S 19 22 10 12 1026.5 1026.6 0.0
20/06:30pm 13.0 8.2 5.7 61 3.4 S 20 28 11 15 1026.2 1026.3 0.0

Other Formats:

Comma delimited format used in spreadsheet applications
http://www.bom.gov.au/fwo/IDV60801/IDV60801.94875.axf

JavaScript Object Notation format (JSON) in row-major order
http://www.bom.gov.au/fwo/IDV60801/IDV60801.94875.json